AAN107 LERL-LEBA
Flight info
| Callsign | AAN107 |
|---|---|
| Flight time | N/A |
| Altitude | 6500 |
| Route | VFR |
| Aircraft | C172/L-SDFG/C |
Departure
| Time | 2026-05-06 16:15 |
|---|---|
| Airport | Ciudad Real International Airport (LERL) |
Arrival
| Time | N/A |
|---|---|
| Airport | Córdoba Airport (LEBA) |
| Time | Latitude | Longitude | Altitude | Speed | Heading |
|---|---|---|---|---|---|
| 2026-05-06 16:06 | 38.86449 | -3.99436 | 2122 ft | 0 kts | 13° |
| 2026-05-06 16:12 | 38.86450 | -3.99435 | 2122 ft | 2 kts | 44° |
| 2026-05-06 16:12 | 38.86431 | -3.99395 | 2122 ft | 9 kts | 152° |
| 2026-05-06 16:12 | 38.86367 | -3.99337 | 2122 ft | 13 kts | 135° |
| 2026-05-06 16:12 | 38.86291 | -3.99255 | 2122 ft | 16 kts | 167° |
| 2026-05-06 16:13 | 38.86173 | -3.99243 | 2123 ft | 17 kts | 168° |
| 2026-05-06 16:13 | 38.86059 | -3.99208 | 2122 ft | 17 kts | 136° |
| 2026-05-06 16:13 | 38.86036 | -3.99165 | 2122 ft | 0 kts | 108° |
| 2026-05-06 16:14 | 38.86026 | -3.99089 | 2123 ft | 29 kts | 99° |
| 2026-05-06 16:14 | 38.85946 | -3.98648 | 2125 ft | 71 kts | 113° |
| 2026-05-06 16:14 | 38.85812 | -3.97955 | 2189 ft | 90 kts | 96° |
| 2026-05-06 16:14 | 38.85671 | -3.97141 | 2348 ft | 97 kts | 99° |
| 2026-05-06 16:15 | 38.85492 | -3.96297 | 2590 ft | 99 kts | 107° |
| 2026-05-06 16:15 | 38.85019 | -3.95747 | 2755 ft | 101 kts | 178° |
| 2026-05-06 16:15 | 38.84425 | -3.96095 | 2882 ft | 106 kts | 255° |
| 2026-05-06 16:15 | 38.84546 | -3.97020 | 3120 ft | 98 kts | 290° |
| 2026-05-06 16:16 | 38.84743 | -3.97836 | 3325 ft | 95 kts | 271° |
| 2026-05-06 16:16 | 38.84327 | -3.98451 | 3481 ft | 98 kts | 212° |
| 2026-05-06 16:16 | 38.83684 | -3.98949 | 3476 ft | 115 kts | 214° |
| 2026-05-06 16:16 | 38.82991 | -3.99490 | 3483 ft | 118 kts | 214° |
| 2026-05-06 16:17 | 38.82276 | -4.00056 | 3482 ft | 123 kts | 217° |
| 2026-05-06 16:17 | 38.81566 | -4.00676 | 3485 ft | 124 kts | 218° |
| 2026-05-06 16:17 | 38.80848 | -4.01298 | 3479 ft | 123 kts | 218° |
| 2026-05-06 16:17 | 38.80165 | -4.01952 | 3477 ft | 122 kts | 219° |
| 2026-05-06 16:18 | 38.79487 | -4.02606 | 3482 ft | 122 kts | 220° |
| 2026-05-06 16:18 | 38.78795 | -4.03270 | 3477 ft | 125 kts | 220° |
| 2026-05-06 16:18 | 38.78110 | -4.03926 | 3474 ft | 123 kts | 218° |
| 2026-05-06 16:18 | 38.77451 | -4.04611 | 3473 ft | 120 kts | 223° |
| 2026-05-06 16:19 | 38.76810 | -4.05286 | 3472 ft | 119 kts | 222° |
| 2026-05-06 16:19 | 38.76168 | -4.05960 | 3472 ft | 120 kts | 223° |
| 2026-05-06 16:19 | 38.75523 | -4.06639 | 3471 ft | 120 kts | 222° |
| 2026-05-06 16:19 | 38.74875 | -4.07316 | 3474 ft | 121 kts | 223° |
| 2026-05-06 16:20 | 38.74219 | -4.07996 | 3469 ft | 122 kts | 223° |
| 2026-05-06 16:20 | 38.73577 | -4.08667 | 3578 ft | 114 kts | 223° |
| 2026-05-06 16:20 | 38.72943 | -4.09173 | 3744 ft | 104 kts | 208° |
| 2026-05-06 16:20 | 38.72314 | -4.09565 | 3903 ft | 97 kts | 210° |
| 2026-05-06 16:21 | 38.71715 | -4.09932 | 4077 ft | 96 kts | 209° |
| 2026-05-06 16:21 | 38.71123 | -4.10300 | 4248 ft | 96 kts | 211° |
| 2026-05-06 16:21 | 38.70544 | -4.10730 | 4431 ft | 97 kts | 216° |
| 2026-05-06 16:21 | 38.69968 | -4.11218 | 4606 ft | 100 kts | 220° |
| 2026-05-06 16:22 | 38.69375 | -4.11713 | 4773 ft | 103 kts | 218° |
| 2026-05-06 16:22 | 38.68777 | -4.12224 | 4931 ft | 103 kts | 218° |
| 2026-05-06 16:22 | 38.68166 | -4.12747 | 5074 ft | 106 kts | 217° |
| 2026-05-06 16:22 | 38.67549 | -4.13273 | 5221 ft | 106 kts | 218° |
| 2026-05-06 16:23 | 38.66946 | -4.13787 | 5368 ft | 103 kts | 218° |
| 2026-05-06 16:23 | 38.66355 | -4.14285 | 5511 ft | 100 kts | 217° |
| 2026-05-06 16:23 | 38.65784 | -4.14763 | 5659 ft | 97 kts | 218° |
| 2026-05-06 16:23 | 38.65209 | -4.15235 | 5814 ft | 100 kts | 217° |
| 2026-05-06 16:24 | 38.64612 | -4.15729 | 5943 ft | 103 kts | 216° |
| 2026-05-06 16:24 | 38.64002 | -4.16238 | 6074 ft | 105 kts | 216° |
| 2026-05-06 16:24 | 38.63382 | -4.16743 | 6205 ft | 106 kts | 216° |
| 2026-05-06 16:24 | 38.62756 | -4.17259 | 6329 ft | 108 kts | 217° |
| 2026-05-06 16:25 | 38.62128 | -4.17770 | 6448 ft | 107 kts | 218° |
| 2026-05-06 16:25 | 38.61490 | -4.18289 | 6575 ft | 110 kts | 217° |
| 2026-05-06 16:25 | 38.60847 | -4.18821 | 6639 ft | 114 kts | 218° |
| 2026-05-06 16:25 | 38.60170 | -4.19384 | 6642 ft | 117 kts | 217° |
| 2026-05-06 16:26 | 38.59479 | -4.19957 | 6634 ft | 118 kts | 217° |
| 2026-05-06 16:26 | 38.59014 | -4.20340 | 6636 ft | 118 kts | 217° |
| 2026-05-06 16:26 | 38.58315 | -4.20918 | 6640 ft | 120 kts | 217° |
| 2026-05-06 16:26 | 38.57586 | -4.21451 | 6637 ft | 122 kts | 207° |
| 2026-05-06 16:27 | 38.56797 | -4.21869 | 6634 ft | 123 kts | 205° |
| 2026-05-06 16:27 | 38.55714 | -4.22255 | 6634 ft | 122 kts | 199° |
| 2026-05-06 16:27 | 38.54886 | -4.22524 | 6636 ft | 123 kts | 198° |
| 2026-05-06 16:27 | 38.54053 | -4.22786 | 6637 ft | 122 kts | 199° |
| 2026-05-06 16:28 | 38.53495 | -4.22967 | 6632 ft | 122 kts | 198° |
| 2026-05-06 16:28 | 38.52666 | -4.23225 | 6632 ft | 125 kts | 198° |
| 2026-05-06 16:28 | 38.51824 | -4.23483 | 6631 ft | 123 kts | 199° |
| 2026-05-06 16:28 | 38.50992 | -4.23743 | 6638 ft | 123 kts | 198° |
| 2026-05-06 16:29 | 38.50141 | -4.24011 | 6623 ft | 126 kts | 198° |
| 2026-05-06 16:29 | 38.49303 | -4.24269 | 6629 ft | 123 kts | 198° |
| 2026-05-06 16:29 | 38.48455 | -4.24528 | 6630 ft | 127 kts | 199° |
| 2026-05-06 16:29 | 38.47591 | -4.24800 | 6625 ft | 127 kts | 199° |
| 2026-05-06 16:30 | 38.46725 | -4.25059 | 6635 ft | 129 kts | 199° |
| 2026-05-06 16:30 | 38.46146 | -4.25234 | 6622 ft | 128 kts | 199° |
| 2026-05-06 16:30 | 38.45004 | -4.25582 | 6628 ft | 128 kts | 198° |
| 2026-05-06 16:30 | 38.44140 | -4.25860 | 6633 ft | 129 kts | 199° |
| 2026-05-06 16:31 | 38.43271 | -4.26128 | 6634 ft | 127 kts | 198° |
| 2026-05-06 16:31 | 38.42419 | -4.26396 | 6628 ft | 127 kts | 200° |
| 2026-05-06 16:31 | 38.41553 | -4.26663 | 6625 ft | 125 kts | 198° |
| 2026-05-06 16:31 | 38.40710 | -4.26949 | 6615 ft | 125 kts | 200° |
| 2026-05-06 16:32 | 38.39906 | -4.27254 | 6619 ft | 121 kts | 202° |
| 2026-05-06 16:32 | 38.39107 | -4.27610 | 6625 ft | 122 kts | 204° |
| 2026-05-06 16:32 | 38.38302 | -4.27962 | 6616 ft | 122 kts | 204° |
| 2026-05-06 16:32 | 38.37515 | -4.28316 | 6613 ft | 118 kts | 204° |
| 2026-05-06 16:33 | 38.36736 | -4.28648 | 6619 ft | 119 kts | 204° |
| 2026-05-06 16:33 | 38.35936 | -4.28994 | 6624 ft | 123 kts | 202° |
| 2026-05-06 16:33 | 38.35116 | -4.29343 | 6621 ft | 125 kts | 202° |
| 2026-05-06 16:34 | 38.33497 | -4.30115 | 6628 ft | 125 kts | 206° |